Airfield :
LOGIN :

Register | Disclaimer

   EN    FR    IT 

 










Legend :    VFR   Marginal VFR   IFR   Intensive IFR   Very Intensive IFR
Visi :
Ceiling :
>= 8 km
>= 3000ft
5 to 8 km
1000 to 3000 ft
1500m to 5 km
500 to 1000 ft
800 to 1500m
200 to 500 ft
< 800m
< 200 ft
Symbols :   Thunderstorms  Fog  Heavy snow  Heavy precipitations  Wind > 20 kt
SIGMETs :     Misc.  Thunderstorms  Icing  Turbulence  Mountain Waves  Volcanic Ashes







- Airport Elevation : -11 ft
- IATA code : AMS


EHAM - Amsterdam Schiphol

CURRENT METAR :
  • 121625Z 10008KT 070V140 9999 BKN027 04/M00 Q1025 NOSIG

EXPIRED METARs :
  • 121555Z 11007KT 9999 BKN027 04/M01 Q1025 NOSIG
  • 121525Z 10009KT 9999 FEW025 BKN031 04/M01 Q1025 NOSIG
  • 121455Z 10008KT 070V130 9999 FEW025 BKN032 04/M00 Q1025 NOSIG
  • 121425Z 11008KT 080V140 9999 FEW025 BKN032 04/00 Q1025 NOSIG
  • 121355Z 13009KT 090V150 9999 FEW023 BKN027 05/00 Q1025 NOSIG

TAF TAF EHAM
Valid from the 12 at 12:00 until the 13 at 18:00 UTC


121056Z 1212/1318 09008KT 9999 SCT030
BECMG 1221/1224 BKN012
PROB40 1300/1310 7000 BKN007
BECMG 1310/1313 SCT020
No reported NOTAMs for that airfield.



MET'MAP, your aeronautical weather chart ! - Copyright ORBIFLY December 2007 - Disclaimer

ORBIFLY MET'MAP TEAM :

Programming & Development : Alexandra Zaïnal
Concept & Development : Baudouin d'Aumeries
Co-Development & Prog : Marc-Olivier Méhu
Technical & hardware support : Manuel Goepfert

Contact : metmap@orbifly.com




SOURCES & CREDITS :

   NOAA